sensor_id;sensor_type;location;lat;lon;timestamp;temperature;humidity
18777;DHT22;9517;51.174;4.160;2023-04-05T00:01:57;4.20;99.90
18777;DHT22;9517;51.174;4.160;2023-04-05T00:04:24;4.10;99.90
18777;DHT22;9517;51.174;4.160;2023-04-05T00:06:53;4.00;99.90
18777;DHT22;9517;51.174;4.160;2023-04-05T00:09:22;4.00;99.90
18777;DHT22;9517;51.174;4.160;2023-04-05T00:11:49;4.00;99.90
18777;DHT22;9517;51.174;4.160;2023-04-05T00:14:17;4.10;99.90
18777;DHT22;9517;51.174;4.160;2023-04-05T00:16:44;4.30;99.90
18777;DHT22;9517;51.174;4.160;2023-04-05T00:19:11;4.40;99.90
18777;DHT22;9517;51.174;4.160;2023-04-05T00:21:39;4.40;99.90
18777;DHT22;9517;51.174;4.160;2023-04-05T00:24:07;4.30;99.90
18777;DHT22;9517;51.174;4.160;2023-04-05T00:26:40;4.10;99.90
18777;DHT22;9517;51.174;4.160;2023-04-05T00:29:08;4.10;99.90
18777;DHT22;9517;51.174;4.160;2023-04-05T00:31:37;4.30;99.90
18777;DHT22;9517;51.174;4.160;2023-04-05T00:34:04;4.30;99.90
18777;DHT22;9517;51.174;4.160;2023-04-05T00:36:33;4.20;99.90
18777;DHT22;9517;51.174;4.160;2023-04-05T00:39:02;4.00;99.90
18777;DHT22;9517;51.174;4.160;2023-04-05T00:41:29;3.90;99.90
18777;DHT22;9517;51.174;4.160;2023-04-05T00:43:56;3.90;99.90
18777;DHT22;9517;51.174;4.160;2023-04-05T00:46:25;3.80;99.90
18777;DHT22;9517;51.174;4.160;2023-04-05T00:48:54;3.70;99.90
18777;DHT22;9517;51.174;4.160;2023-04-05T00:51:21;3.70;99.90
18777;DHT22;9517;51.174;4.160;2023-04-05T00:53:49;3.60;99.90
18777;DHT22;9517;51.174;4.160;2023-04-05T00:56:18;3.50;99.90
18777;DHT22;9517;51.174;4.160;2023-04-05T00:58:47;3.50;99.90
18777;DHT22;9517;51.174;4.160;2023-04-05T01:01:18;3.60;99.90
18777;DHT22;9517;51.174;4.160;2023-04-05T01:03:50;3.50;99.90
18777;DHT22;9517;51.174;4.160;2023-04-05T01:09:28;3.40;99.90
18777;DHT22;9517;51.174;4.160;2023-04-05T01:11:57;3.30;99.90
18777;DHT22;9517;51.174;4.160;2023-04-05T01:14:24;3.60;99.90
18777;DHT22;9517;51.174;4.160;2023-04-05T01:16:51;3.60;99.90
18777;DHT22;9517;51.174;4.160;2023-04-05T01:19:24;3.50;99.90
18777;DHT22;9517;51.174;4.160;2023-04-05T01:22:12;3.30;99.90
18777;DHT22;9517;51.174;4.160;2023-04-05T01:25:08;3.30;99.90
18777;DHT22;9517;51.174;4.160;2023-04-05T01:27:52;3.50;99.90
18777;DHT22;9517;51.174;4.160;2023-04-05T01:30:26;3.40;99.90
18777;DHT22;9517;51.174;4.160;2023-04-05T01:33:05;3.40;99.90
18777;DHT22;9517;51.174;4.160;2023-04-05T01:35:39;3.40;99.90
18777;DHT22;9517;51.174;4.160;2023-04-05T01:38:11;3.30;99.90
18777;DHT22;9517;51.174;4.160;2023-04-05T01:40:40;3.20;99.90
18777;DHT22;9517;51.174;4.160;2023-04-05T01:43:12;3.10;99.90
18777;DHT22;9517;51.174;4.160;2023-04-05T01:45:41;3.10;99.90
18777;DHT22;9517;51.174;4.160;2023-04-05T01:48:08;3.10;99.90
18777;DHT22;9517;51.174;4.160;2023-04-05T01:50:35;3.00;99.90
18777;DHT22;9517;51.174;4.160;2023-04-05T01:53:02;2.90;99.90
18777;DHT22;9517;51.174;4.160;2023-04-05T01:55:29;3.00;99.90
18777;DHT22;9517;51.174;4.160;2023-04-05T01:57:56;2.90;99.90
18777;DHT22;9517;51.174;4.160;2023-04-05T02:00:23;2.90;99.90
18777;DHT22;9517;51.174;4.160;2023-04-05T02:02:53;2.80;99.90
18777;DHT22;9517;51.174;4.160;2023-04-05T02:05:20;3.10;99.90
18777;DHT22;9517;51.174;4.160;2023-04-05T02:07:47;3.00;99.90
18777;DHT22;9517;51.174;4.160;2023-04-05T02:10:14;3.00;99.90
18777;DHT22;9517;51.174;4.160;2023-04-05T02:12:41;2.90;99.90
18777;DHT22;9517;51.174;4.160;2023-04-05T02:15:09;2.90;99.90
18777;DHT22;9517;51.174;4.160;2023-04-05T02:17:36;2.80;99.90
18777;DHT22;9517;51.174;4.160;2023-04-05T02:20:07;2.70;99.90
18777;DHT22;9517;51.174;4.160;2023-04-05T02:22:37;2.60;99.90
18777;DHT22;9517;51.174;4.160;2023-04-05T02:25:05;2.60;99.90
18777;DHT22;9517;51.174;4.160;2023-04-05T02:27:33;2.60;99.90
18777;DHT22;9517;51.174;4.160;2023-04-05T02:30:00;2.50;99.90
18777;DHT22;9517;51.174;4.160;2023-04-05T02:32:27;2.50;99.90
18777;DHT22;9517;51.174;4.160;2023-04-05T02:34:56;2.50;99.90
18777;DHT22;9517;51.174;4.160;2023-04-05T02:37:24;2.40;99.90
18777;DHT22;9517;51.174;4.160;2023-04-05T02:39:51;2.40;99.90
18777;DHT22;9517;51.174;4.160;2023-04-05T02:42:18;2.30;99.90
18777;DHT22;9517;51.174;4.160;2023-04-05T02:44:46;2.40;99.90
18777;DHT22;9517;51.174;4.160;2023-04-05T02:47:13;2.20;99.90
18777;DHT22;9517;51.174;4.160;2023-04-05T02:49:46;2.50;99.90
18777;DHT22;9517;51.174;4.160;2023-04-05T02:52:13;2.40;99.90
18777;DHT22;9517;51.174;4.160;2023-04-05T02:54:42;2.40;99.90
18777;DHT22;9517;51.174;4.160;2023-04-05T02:57:10;2.50;99.90
18777;DHT22;9517;51.174;4.160;2023-04-05T02:59:38;2.40;99.90
18777;DHT22;9517;51.174;4.160;2023-04-05T03:02:06;2.50;99.90
18777;DHT22;9517;51.174;4.160;2023-04-05T03:04:33;2.50;99.90
18777;DHT22;9517;51.174;4.160;2023-04-05T03:07:02;2.40;99.90
18777;DHT22;9517;51.174;4.160;2023-04-05T03:09:29;2.50;99.90
18777;DHT22;9517;51.174;4.160;2023-04-05T03:11:59;2.30;99.90
18777;DHT22;9517;51.174;4.160;2023-04-05T03:14:28;2.40;99.90
18777;DHT22;9517;51.174;4.160;2023-04-05T03:16:56;2.50;99.90
18777;DHT22;9517;51.174;4.160;2023-04-05T03:19:23;2.50;99.90
18777;DHT22;9517;51.174;4.160;2023-04-05T03:21:51;2.50;99.90
18777;DHT22;9517;51.174;4.160;2023-04-05T03:24:18;2.40;99.90
18777;DHT22;9517;51.174;4.160;2023-04-05T03:26:46;2.30;99.90
18777;DHT22;9517;51.174;4.160;2023-04-05T03:29:16;2.30;99.90
18777;DHT22;9517;51.174;4.160;2023-04-05T03:31:43;2.20;99.90
18777;DHT22;9517;51.174;4.160;2023-04-05T03:34:10;2.20;99.90
18777;DHT22;9517;51.174;4.160;2023-04-05T03:36:37;2.10;99.90
18777;DHT22;9517;51.174;4.160;2023-04-05T03:39:08;2.20;99.90
18777;DHT22;9517;51.174;4.160;2023-04-05T03:41:35;2.20;99.90
18777;DHT22;9517;51.174;4.160;2023-04-05T03:44:03;2.30;99.90
18777;DHT22;9517;51.174;4.160;2023-04-05T03:46:31;2.30;99.90
18777;DHT22;9517;51.174;4.160;2023-04-05T03:48:59;2.10;99.90
18777;DHT22;9517;51.174;4.160;2023-04-05T03:51:26;2.10;99.90
18777;DHT22;9517;51.174;4.160;2023-04-05T03:53:53;2.00;99.90
18777;DHT22;9517;51.174;4.160;2023-04-05T03:56:21;2.00;99.90
18777;DHT22;9517;51.174;4.160;2023-04-05T03:58:48;1.90;99.90
18777;DHT22;9517;51.174;4.160;2023-04-05T04:01:15;1.90;99.90
18777;DHT22;9517;51.174;4.160;2023-04-05T04:03:44;1.80;99.90
18777;DHT22;9517;51.174;4.160;2023-04-05T04:06:11;1.80;99.90
18777;DHT22;9517;51.174;4.160;2023-04-05T04:08:38;1.70;99.90
18777;DHT22;9517;51.174;4.160;2023-04-05T04:11:05;1.70;99.90
18777;DHT22;9517;51.174;4.160;2023-04-05T04:13:32;1.80;99.90
18777;DHT22;9517;51.174;4.160;2023-04-05T04:15:59;1.70;99.90
18777;DHT22;9517;51.174;4.160;2023-04-05T04:18:26;1.80;99.90
18777;DHT22;9517;51.174;4.160;2023-04-05T04:20:55;1.70;99.90
18777;DHT22;9517;51.174;4.160;2023-04-05T04:23:23;1.80;99.90
18777;DHT22;9517;51.174;4.160;2023-04-05T04:25:51;1.80;99.90
18777;DHT22;9517;51.174;4.160;2023-04-05T04:28:19;1.80;99.90
18777;DHT22;9517;51.174;4.160;2023-04-05T04:30:49;1.80;99.90
18777;DHT22;9517;51.174;4.160;2023-04-05T04:33:16;1.70;99.90
18777;DHT22;9517;51.174;4.160;2023-04-05T04:35:44;1.70;99.90
18777;DHT22;9517;51.174;4.160;2023-04-05T04:38:13;1.70;99.90
18777;DHT22;9517;51.174;4.160;2023-04-05T04:40:43;1.70;99.90
18777;DHT22;9517;51.174;4.160;2023-04-05T04:43:13;1.70;99.90
18777;DHT22;9517;51.174;4.160;2023-04-05T04:45:42;1.60;99.90
18777;DHT22;9517;51.174;4.160;2023-04-05T04:48:11;1.60;99.90
18777;DHT22;9517;51.174;4.160;2023-04-05T04:50:39;1.60;99.90
18777;DHT22;9517;51.174;4.160;2023-04-05T04:53:06;1.50;99.90
18777;DHT22;9517;51.174;4.160;2023-04-05T04:55:34;1.70;99.90
18777;DHT22;9517;51.174;4.160;2023-04-05T04:58:01;1.70;99.90
18777;DHT22;9517;51.174;4.160;2023-04-05T05:00:34;1.80;99.90
18777;DHT22;9517;51.174;4.160;2023-04-05T05:03:01;1.80;99.90
18777;DHT22;9517;51.174;4.160;2023-04-05T05:05:29;1.80;99.90
18777;DHT22;9517;51.174;4.160;2023-04-05T05:07:55;1.80;99.90
18777;DHT22;9517;51.174;4.160;2023-04-05T05:10:23;1.70;99.90
18777;DHT22;9517;51.174;4.160;2023-04-05T05:12:51;1.70;99.90
18777;DHT22;9517;51.174;4.160;2023-04-05T05:15:18;1.60;99.90
18777;DHT22;9517;51.174;4.160;2023-04-05T05:17:45;1.70;99.90
18777;DHT22;9517;51.174;4.160;2023-04-05T05:20:17;1.70;99.90
18777;DHT22;9517;51.174;4.160;2023-04-05T05:22:44;1.70;99.90
18777;DHT22;9517;51.174;4.160;2023-04-05T05:25:12;1.70;99.90
18777;DHT22;9517;51.174;4.160;2023-04-05T05:27:39;1.90;99.90
18777;DHT22;9517;51.174;4.160;2023-04-05T05:30:09;1.90;99.90
18777;DHT22;9517;51.174;4.160;2023-04-05T05:32:36;1.80;99.90
18777;DHT22;9517;51.174;4.160;2023-04-05T05:35:04;1.90;99.90
18777;DHT22;9517;51.174;4.160;2023-04-05T05:37:32;1.90;99.90
18777;DHT22;9517;51.174;4.160;2023-04-05T05:40:00;1.80;99.90
18777;DHT22;9517;51.174;4.160;2023-04-05T05:42:30;1.80;99.90
18777;DHT22;9517;51.174;4.160;2023-04-05T05:45:02;2.00;99.90
18777;DHT22;9517;51.174;4.160;2023-04-05T05:47:30;2.20;99.90
18777;DHT22;9517;51.174;4.160;2023-04-05T05:49:57;2.20;99.90
18777;DHT22;9517;51.174;4.160;2023-04-05T05:52:25;2.20;99.90
18777;DHT22;9517;51.174;4.160;2023-04-05T05:54:52;2.30;99.90
18777;DHT22;9517;51.174;4.160;2023-04-05T05:57:19;2.30;99.90
18777;DHT22;9517;51.174;4.160;2023-04-05T05:59:46;2.40;99.90
18777;DHT22;9517;51.174;4.160;2023-04-05T06:02:13;2.60;99.90
18777;DHT22;9517;51.174;4.160;2023-04-05T06:04:42;2.70;99.90
18777;DHT22;9517;51.174;4.160;2023-04-05T06:07:10;2.80;99.90
18777;DHT22;9517;51.174;4.160;2023-04-05T06:09:37;2.90;99.90
18777;DHT22;9517;51.174;4.160;2023-04-05T06:12:04;3.10;99.90
18777;DHT22;9517;51.174;4.160;2023-04-05T06:14:31;3.30;99.90
18777;DHT22;9517;51.174;4.160;2023-04-05T06:16:58;3.40;99.90
18777;DHT22;9517;51.174;4.160;2023-04-05T06:19:25;3.60;99.90
18777;DHT22;9517;51.174;4.160;2023-04-05T06:21:54;3.60;99.90
18777;DHT22;9517;51.174;4.160;2023-04-05T06:24:21;3.70;99.90
18777;DHT22;9517;51.174;4.160;2023-04-05T06:26:49;3.90;99.90
18777;DHT22;9517;51.174;4.160;2023-04-05T06:29:16;4.00;99.90
18777;DHT22;9517;51.174;4.160;2023-04-05T06:31:43;4.20;99.90
18777;DHT22;9517;51.174;4.160;2023-04-05T06:34:12;4.40;99.90
18777;DHT22;9517;51.174;4.160;2023-04-05T06:36:40;4.50;99.90
18777;DHT22;9517;51.174;4.160;2023-04-05T06:39:08;4.70;99.90
18777;DHT22;9517;51.174;4.160;2023-04-05T06:41:35;4.80;99.90
18777;DHT22;9517;51.174;4.160;2023-04-05T06:44:03;5.10;99.90
18777;DHT22;9517;51.174;4.160;2023-04-05T06:46:30;5.20;99.90
18777;DHT22;9517;51.174;4.160;2023-04-05T06:48:57;5.40;99.90
18777;DHT22;9517;51.174;4.160;2023-04-05T06:51:25;5.70;99.90
18777;DHT22;9517;51.174;4.160;2023-04-05T06:53:53;5.80;99.90
18777;DHT22;9517;51.174;4.160;2023-04-05T06:56:22;6.00;99.90
18777;DHT22;9517;51.174;4.160;2023-04-05T06:58:49;6.20;99.90
18777;DHT22;9517;51.174;4.160;2023-04-05T07:01:16;6.40;99.90
18777;DHT22;9517;51.174;4.160;2023-04-05T07:03:43;6.50;99.90
18777;DHT22;9517;51.174;4.160;2023-04-05T07:06:10;6.60;99.90
18777;DHT22;9517;51.174;4.160;2023-04-05T07:08:37;6.80;99.90
18777;DHT22;9517;51.174;4.160;2023-04-05T07:11:05;7.00;99.90
18777;DHT22;9517;51.174;4.160;2023-04-05T07:13:34;7.20;99.90
18777;DHT22;9517;51.174;4.160;2023-04-05T07:16:02;7.30;99.90
18777;DHT22;9517;51.174;4.160;2023-04-05T07:18:29;7.40;99.90
18777;DHT22;9517;51.174;4.160;2023-04-05T07:20:57;7.60;99.90
18777;DHT22;9517;51.174;4.160;2023-04-05T07:23:28;7.80;99.90
18777;DHT22;9517;51.174;4.160;2023-04-05T07:26:00;7.80;99.90
18777;DHT22;9517;51.174;4.160;2023-04-05T07:28:29;8.00;99.90
18777;DHT22;9517;51.174;4.160;2023-04-05T07:30:57;8.20;99.90
18777;DHT22;9517;51.174;4.160;2023-04-05T07:33:24;8.30;99.90
18777;DHT22;9517;51.174;4.160;2023-04-05T07:35:52;8.30;99.90
18777;DHT22;9517;51.174;4.160;2023-04-05T07:38:21;8.40;99.90
18777;DHT22;9517;51.174;4.160;2023-04-05T07:40:48;8.40;99.90
18777;DHT22;9517;51.174;4.160;2023-04-05T07:43:16;8.60;99.90
18777;DHT22;9517;51.174;4.160;2023-04-05T07:45:44;8.60;99.90
18777;DHT22;9517;51.174;4.160;2023-04-05T07:48:12;8.80;99.90
18777;DHT22;9517;51.174;4.160;2023-04-05T07:50:40;8.90;99.90
18777;DHT22;9517;51.174;4.160;2023-04-05T07:53:12;9.10;99.90
18777;DHT22;9517;51.174;4.160;2023-04-05T07:55:39;9.30;99.90
18777;DHT22;9517;51.174;4.160;2023-04-05T07:58:06;9.30;99.90
18777;DHT22;9517;51.174;4.160;2023-04-05T08:00:33;9.40;99.90
18777;DHT22;9517;51.174;4.160;2023-04-05T08:03:01;9.60;99.90
18777;DHT22;9517;51.174;4.160;2023-04-05T08:05:30;9.50;99.90
18777;DHT22;9517;51.174;4.160;2023-04-05T08:07:57;9.50;99.90
18777;DHT22;9517;51.174;4.160;2023-04-05T08:10:24;9.50;99.90
18777;DHT22;9517;51.174;4.160;2023-04-05T08:12:51;9.60;99.90
18777;DHT22;9517;51.174;4.160;2023-04-05T08:15:18;9.60;99.90
18777;DHT22;9517;51.174;4.160;2023-04-05T08:17:46;9.60;99.90
18777;DHT22;9517;51.174;4.160;2023-04-05T08:20:13;9.70;99.90
18777;DHT22;9517;51.174;4.160;2023-04-05T08:22:41;9.80;99.90
18777;DHT22;9517;51.174;4.160;2023-04-05T08:25:08;9.90;99.90
18777;DHT22;9517;51.174;4.160;2023-04-05T08:27:36;9.80;99.90
18777;DHT22;9517;51.174;4.160;2023-04-05T08:30:04;10.10;99.90
18777;DHT22;9517;51.174;4.160;2023-04-05T08:32:32;10.20;99.90
18777;DHT22;9517;51.174;4.160;2023-04-05T08:34:59;10.30;99.90
18777;DHT22;9517;51.174;4.160;2023-04-05T08:37:27;10.40;99.90
18777;DHT22;9517;51.174;4.160;2023-04-05T08:39:55;10.50;99.90
18777;DHT22;9517;51.174;4.160;2023-04-05T08:42:28;10.60;99.90
18777;DHT22;9517;51.174;4.160;2023-04-05T08:44:56;10.60;99.90
18777;DHT22;9517;51.174;4.160;2023-04-05T08:47:26;11.00;99.90
18777;DHT22;9517;51.174;4.160;2023-04-05T08:49:53;11.40;99.90
18777;DHT22;9517;51.174;4.160;2023-04-05T08:52:21;11.30;99.90
18777;DHT22;9517;51.174;4.160;2023-04-05T08:54:48;10.90;99.90
18777;DHT22;9517;51.174;4.160;2023-04-05T08:57:17;11.10;99.90
18777;DHT22;9517;51.174;4.160;2023-04-05T08:59:48;11.10;99.90
18777;DHT22;9517;51.174;4.160;2023-04-05T09:02:18;11.10;99.90
18777;DHT22;9517;51.174;4.160;2023-04-05T09:04:46;11.00;99.90
18777;DHT22;9517;51.174;4.160;2023-04-05T09:07:14;11.10;99.90
18777;DHT22;9517;51.174;4.160;2023-04-05T09:09:45;11.20;99.90
18777;DHT22;9517;51.174;4.160;2023-04-05T09:12:13;11.30;99.90
18777;DHT22;9517;51.174;4.160;2023-04-05T09:14:42;11.10;99.90
18777;DHT22;9517;51.174;4.160;2023-04-05T09:17:10;11.20;99.90
18777;DHT22;9517;51.174;4.160;2023-04-05T09:19:37;11.50;99.90
18777;DHT22;9517;51.174;4.160;2023-04-05T09:22:06;11.70;99.90
18777;DHT22;9517;51.174;4.160;2023-04-05T09:24:34;12.10;99.90
18777;DHT22;9517;51.174;4.160;2023-04-05T09:27:06;12.70;99.90
18777;DHT22;9517;51.174;4.160;2023-04-05T09:29:34;12.80;99.90
18777;DHT22;9517;51.174;4.160;2023-04-05T09:32:04;13.10;99.90
18777;DHT22;9517;51.174;4.160;2023-04-05T09:34:33;13.50;99.90
18777;DHT22;9517;51.174;4.160;2023-04-05T09:37:02;13.60;99.90
18777;DHT22;9517;51.174;4.160;2023-04-05T09:39:37;13.60;99.90
18777;DHT22;9517;51.174;4.160;2023-04-05T09:42:06;13.40;99.90
18777;DHT22;9517;51.174;4.160;2023-04-05T09:44:54;13.40;99.90
18777;DHT22;9517;51.174;4.160;2023-04-05T09:47:25;13.00;99.90
18777;DHT22;9517;51.174;4.160;2023-04-05T09:49:55;13.10;99.90
18777;DHT22;9517;51.174;4.160;2023-04-05T09:52:24;13.10;99.90
18777;DHT22;9517;51.174;4.160;2023-04-05T09:54:52;12.80;99.90
18777;DHT22;9517;51.174;4.160;2023-04-05T09:57:21;13.00;99.90
18777;DHT22;9517;51.174;4.160;2023-04-05T09:59:51;13.30;99.90
18777;DHT22;9517;51.174;4.160;2023-04-05T10:02:18;13.30;99.90
18777;DHT22;9517;51.174;4.160;2023-04-05T10:04:47;13.60;99.90
18777;DHT22;9517;51.174;4.160;2023-04-05T10:07:15;13.50;99.90
18777;DHT22;9517;51.174;4.160;2023-04-05T10:09:44;13.50;99.90
18777;DHT22;9517;51.174;4.160;2023-04-05T10:12:17;14.20;99.90
18777;DHT22;9517;51.174;4.160;2023-04-05T10:14:47;13.90;99.90
18777;DHT22;9517;51.174;4.160;2023-04-05T10:17:22;14.30;99.90
18777;DHT22;9517;51.174;4.160;2023-04-05T10:20:06;14.90;99.90
18777;DHT22;9517;51.174;4.160;2023-04-05T10:22:39;15.40;99.90
18777;DHT22;9517;51.174;4.160;2023-04-05T10:25:13;14.60;99.90
18777;DHT22;9517;51.174;4.160;2023-04-05T10:27:46;15.20;99.90
18777;DHT22;9517;51.174;4.160;2023-04-05T10:30:15;15.60;99.90
18777;DHT22;9517;51.174;4.160;2023-04-05T10:33:02;15.80;99.90
18777;DHT22;9517;51.174;4.160;2023-04-05T10:35:43;16.40;99.90
18777;DHT22;9517;51.174;4.160;2023-04-05T10:38:20;17.10;99.90
18777;DHT22;9517;51.174;4.160;2023-04-05T10:40:50;16.70;99.90
18777;DHT22;9517;51.174;4.160;2023-04-05T10:43:22;17.40;99.90
18777;DHT22;9517;51.174;4.160;2023-04-05T10:45:52;17.40;99.90
18777;DHT22;9517;51.174;4.160;2023-04-05T10:48:36;17.90;99.90
18777;DHT22;9517;51.174;4.160;2023-04-05T10:51:08;18.60;97.80
18777;DHT22;9517;51.174;4.160;2023-04-05T10:53:36;18.40;98.40
18777;DHT22;9517;51.174;4.160;2023-04-05T10:56:05;18.70;99.60
18777;DHT22;9517;51.174;4.160;2023-04-05T10:58:32;19.50;99.90
18777;DHT22;9517;51.174;4.160;2023-04-05T11:01:00;20.10;96.30
18777;DHT22;9517;51.174;4.160;2023-04-05T11:03:44;20.20;96.80
18777;DHT22;9517;51.174;4.160;2023-04-05T11:06:25;20.60;97.20
18777;DHT22;9517;51.174;4.160;2023-04-05T11:08:59;21.20;93.90
18777;DHT22;9517;51.174;4.160;2023-04-05T11:11:26;21.80;92.00
18777;DHT22;9517;51.174;4.160;2023-04-05T11:13:55;20.30;92.80
18777;DHT22;9517;51.174;4.160;2023-04-05T11:16:37;21.00;90.60
18777;DHT22;9517;51.174;4.160;2023-04-05T11:19:04;20.50;89.40
18777;DHT22;9517;51.174;4.160;2023-04-05T11:21:33;22.20;93.10
18777;DHT22;9517;51.174;4.160;2023-04-05T11:24:02;22.00;88.20
18777;DHT22;9517;51.174;4.160;2023-04-05T11:26:32;22.10;88.30
18777;DHT22;9517;51.174;4.160;2023-04-05T11:28:59;21.80;84.50
18777;DHT22;9517;51.174;4.160;2023-04-05T11:31:26;22.00;88.90
18777;DHT22;9517;51.174;4.160;2023-04-05T11:33:55;23.00;90.80
18777;DHT22;9517;51.174;4.160;2023-04-05T11:36:38;23.70;85.70
18777;DHT22;9517;51.174;4.160;2023-04-05T11:39:31;24.30;79.70
18777;DHT22;9517;51.174;4.160;2023-04-05T11:42:00;24.60;80.50
18777;DHT22;9517;51.174;4.160;2023-04-05T11:44:28;23.70;76.00
18777;DHT22;9517;51.174;4.160;2023-04-05T11:46:56;22.70;78.90
18777;DHT22;9517;51.174;4.160;2023-04-05T11:49:24;23.60;81.80
18777;DHT22;9517;51.174;4.160;2023-04-05T11:51:52;24.30;77.60
18777;DHT22;9517;51.174;4.160;2023-04-05T11:54:30;25.10;73.90
18777;DHT22;9517;51.174;4.160;2023-04-05T11:56:57;24.50;70.50
18777;DHT22;9517;51.174;4.160;2023-04-05T11:59:29;24.10;70.40
18777;DHT22;9517;51.174;4.160;2023-04-05T12:02:03;23.90;75.00
18777;DHT22;9517;51.174;4.160;2023-04-05T12:04:32;24.80;74.90
18777;DHT22;9517;51.174;4.160;2023-04-05T12:07:15;25.70;75.20
18777;DHT22;9517;51.174;4.160;2023-04-05T12:09:59;25.30;69.90
18777;DHT22;9517;51.174;4.160;2023-04-05T12:12:27;24.70;76.40
18777;DHT22;9517;51.174;4.160;2023-04-05T12:14:58;23.10;71.30
18777;DHT22;9517;51.174;4.160;2023-04-05T12:17:42;23.00;71.20
18777;DHT22;9517;51.174;4.160;2023-04-05T12:20:11;23.10;71.50
18777;DHT22;9517;51.174;4.160;2023-04-05T12:22:41;23.70;72.00
18777;DHT22;9517;51.174;4.160;2023-04-05T12:25:09;23.70;71.30
18777;DHT22;9517;51.174;4.160;2023-04-05T12:27:37;24.40;73.40
18777;DHT22;9517;51.174;4.160;2023-04-05T12:30:08;23.90;68.40
18777;DHT22;9517;51.174;4.160;2023-04-05T12:32:40;23.60;70.00
18777;DHT22;9517;51.174;4.160;2023-04-05T12:35:10;22.70;67.00
18777;DHT22;9517;51.174;4.160;2023-04-05T12:37:39;23.40;73.00
18777;DHT22;9517;51.174;4.160;2023-04-05T12:40:08;23.90;72.50
18777;DHT22;9517;51.174;4.160;2023-04-05T12:42:36;25.40;68.80
18777;DHT22;9517;51.174;4.160;2023-04-05T12:45:05;25.80;69.10
18777;DHT22;9517;51.174;4.160;2023-04-05T12:47:33;25.60;68.20
18777;DHT22;9517;51.174;4.160;2023-04-05T12:50:11;24.20;64.10
18777;DHT22;9517;51.174;4.160;2023-04-05T12:52:39;23.90;69.70
18777;DHT22;9517;51.174;4.160;2023-04-05T12:55:17;23.80;70.20
18777;DHT22;9517;51.174;4.160;2023-04-05T12:57:48;23.60;69.50
18777;DHT22;9517;51.174;4.160;2023-04-05T13:00:17;23.00;70.90
18777;DHT22;9517;51.174;4.160;2023-04-05T13:02:48;23.60;69.30
18777;DHT22;9517;51.174;4.160;2023-04-05T13:05:18;23.40;68.90
18777;DHT22;9517;51.174;4.160;2023-04-05T13:07:47;22.90;70.80
18777;DHT22;9517;51.174;4.160;2023-04-05T13:10:14;21.80;70.00
18777;DHT22;9517;51.174;4.160;2023-04-05T13:12:41;22.30;71.30
18777;DHT22;9517;51.174;4.160;2023-04-05T13:15:09;22.80;72.70
18777;DHT22;9517;51.174;4.160;2023-04-05T13:17:36;22.50;66.90
18777;DHT22;9517;51.174;4.160;2023-04-05T13:20:04;22.10;70.80
18777;DHT22;9517;51.174;4.160;2023-04-05T13:22:32;21.80;68.20
18777;DHT22;9517;51.174;4.160;2023-04-05T13:25:00;22.40;75.30
18777;DHT22;9517;51.174;4.160;2023-04-05T13:27:28;22.60;71.90
18777;DHT22;9517;51.174;4.160;2023-04-05T13:29:55;23.00;68.70
18777;DHT22;9517;51.174;4.160;2023-04-05T13:32:22;22.00;70.30
18777;DHT22;9517;51.174;4.160;2023-04-05T13:34:49;22.00;71.50
18777;DHT22;9517;51.174;4.160;2023-04-05T13:37:16;22.50;76.60
18777;DHT22;9517;51.174;4.160;2023-04-05T13:39:43;22.70;70.90
18777;DHT22;9517;51.174;4.160;2023-04-05T13:42:11;22.60;70.00
18777;DHT22;9517;51.174;4.160;2023-04-05T13:44:38;22.50;71.40
18777;DHT22;9517;51.174;4.160;2023-04-05T13:47:05;21.80;71.10
18777;DHT22;9517;51.174;4.160;2023-04-05T13:49:32;22.60;71.40
18777;DHT22;9517;51.174;4.160;2023-04-05T13:52:00;22.20;68.50
18777;DHT22;9517;51.174;4.160;2023-04-05T13:54:27;21.70;70.40
18777;DHT22;9517;51.174;4.160;2023-04-05T13:56:54;21.60;69.80
18777;DHT22;9517;51.174;4.160;2023-04-05T13:59:25;21.40;71.70
18777;DHT22;9517;51.174;4.160;2023-04-05T14:01:52;21.40;75.70
18777;DHT22;9517;51.174;4.160;2023-04-05T14:04:19;22.00;75.70
18777;DHT22;9517;51.174;4.160;2023-04-05T14:06:46;21.60;67.70
18777;DHT22;9517;51.174;4.160;2023-04-05T14:09:13;21.10;73.40
18777;DHT22;9517;51.174;4.160;2023-04-05T14:11:40;21.10;69.60
18777;DHT22;9517;51.174;4.160;2023-04-05T14:14:08;20.80;72.10
18777;DHT22;9517;51.174;4.160;2023-04-05T14:16:36;21.00;72.40
18777;DHT22;9517;51.174;4.160;2023-04-05T14:19:03;21.20;70.80
18777;DHT22;9517;51.174;4.160;2023-04-05T14:21:30;22.40;72.40
18777;DHT22;9517;51.174;4.160;2023-04-05T14:23:58;22.60;76.10
18777;DHT22;9517;51.174;4.160;2023-04-05T14:26:26;23.50;74.10
18777;DHT22;9517;51.174;4.160;2023-04-05T14:28:54;23.70;66.00
18777;DHT22;9517;51.174;4.160;2023-04-05T14:31:22;22.80;65.10
18777;DHT22;9517;51.174;4.160;2023-04-05T14:33:51;22.00;71.10
18777;DHT22;9517;51.174;4.160;2023-04-05T14:36:18;21.90;67.00
18777;DHT22;9517;51.174;4.160;2023-04-05T14:38:46;21.90;71.80
18777;DHT22;9517;51.174;4.160;2023-04-05T14:41:13;22.20;69.30
18777;DHT22;9517;51.174;4.160;2023-04-05T14:43:40;22.00;69.50
18777;DHT22;9517;51.174;4.160;2023-04-05T14:46:07;21.70;65.00
18777;DHT22;9517;51.174;4.160;2023-04-05T14:48:34;22.10;67.10
18777;DHT22;9517;51.174;4.160;2023-04-05T14:51:04;22.40;70.40
18777;DHT22;9517;51.174;4.160;2023-04-05T14:53:31;21.80;70.70
18777;DHT22;9517;51.174;4.160;2023-04-05T14:55:58;22.00;69.20
18777;DHT22;9517;51.174;4.160;2023-04-05T14:58:25;22.20;68.20
18777;DHT22;9517;51.174;4.160;2023-04-05T15:00:54;21.20;69.40
18777;DHT22;9517;51.174;4.160;2023-04-05T15:03:23;20.90;66.20
18777;DHT22;9517;51.174;4.160;2023-04-05T15:05:50;22.20;71.90
18777;DHT22;9517;51.174;4.160;2023-04-05T15:08:19;21.40;67.90
18777;DHT22;9517;51.174;4.160;2023-04-05T15:10:46;20.50;67.10
18777;DHT22;9517;51.174;4.160;2023-04-05T15:13:13;20.30;70.80
18777;DHT22;9517;51.174;4.160;2023-04-05T15:15:40;20.40;72.00
18777;DHT22;9517;51.174;4.160;2023-04-05T15:18:08;20.80;73.00
18777;DHT22;9517;51.174;4.160;2023-04-05T15:20:35;20.50;70.70
18777;DHT22;9517;51.174;4.160;2023-04-05T15:23:02;20.10;68.40
18777;DHT22;9517;51.174;4.160;2023-04-05T15:25:31;20.00;73.80
18777;DHT22;9517;51.174;4.160;2023-04-05T15:27:58;19.70;70.50
18777;DHT22;9517;51.174;4.160;2023-04-05T15:30:29;19.40;71.60
18777;DHT22;9517;51.174;4.160;2023-04-05T15:32:58;18.60;72.80
18777;DHT22;9517;51.174;4.160;2023-04-05T15:35:26;18.60;75.50
18777;DHT22;9517;51.174;4.160;2023-04-05T15:37:53;19.50;75.60
18777;DHT22;9517;51.174;4.160;2023-04-05T15:40:20;19.30;70.20
18777;DHT22;9517;51.174;4.160;2023-04-05T15:42:49;19.00;73.30
18777;DHT22;9517;51.174;4.160;2023-04-05T15:45:16;19.30;71.40
18777;DHT22;9517;51.174;4.160;2023-04-05T15:47:43;20.20;70.10
18777;DHT22;9517;51.174;4.160;2023-04-05T15:50:10;20.50;74.10
18777;DHT22;9517;51.174;4.160;2023-04-05T15:52:37;20.40;78.20
18777;DHT22;9517;51.174;4.160;2023-04-05T15:55:05;20.50;70.30
18777;DHT22;9517;51.174;4.160;2023-04-05T15:57:32;20.40;78.70
18777;DHT22;9517;51.174;4.160;2023-04-05T16:00:00;20.10;70.50
18777;DHT22;9517;51.174;4.160;2023-04-05T16:02:28;19.80;75.00
18777;DHT22;9517;51.174;4.160;2023-04-05T16:04:56;19.80;71.60
18777;DHT22;9517;51.174;4.160;2023-04-05T16:07:23;19.40;69.90
18777;DHT22;9517;51.174;4.160;2023-04-05T16:09:50;19.60;74.00